Time;durP1;ratioP1;P1;durP2;ratioP2;P2;SDS_P1;SDS_P2;PMS_P1;PMS_P2;Temp;Humidity;BMP_temperature;BMP_pressure;BME280_temperature;BME280_humidity;BME280_pressure;Samples;Min_cycle;Max_cycle;Signal;HPM_P1;HPM_P2
2021/01/08 00:01:40;;;;;;;;;;;20.40;69.10;;;;;;5055538;28;19932;-62
2021/01/08 00:04:11;;;;;;;;;;;20.50;69.00;;;;;;5067026;28;19928;-64
2021/01/08 00:06:42;;;;;;;;;;;20.60;68.90;;;;;;5051098;28;20309;-64
2021/01/08 00:09:12;;;;;;;;;;;20.70;68.90;;;;;;5047302;28;20346;-61
2021/01/08 00:11:43;;;;;;;;;;;20.70;68.70;;;;;;5054685;28;19924;-63
2021/01/08 00:14:13;;;;;;;;;;;20.80;68.50;;;;;;5050242;28;19977;-61
2021/01/08 00:16:45;;;;;;;;;;;20.80;67.90;;;;;;5053556;28;19975;-65
2021/01/08 00:19:15;;;;;;;;;;;20.80;67.60;;;;;;5052951;28;20637;-62
2021/01/08 00:21:49;;;;;;;;;;;20.80;67.60;;;;;;5068835;28;20343;-62
2021/01/08 00:24:20;;;;;;;;;;;20.90;67.50;;;;;;5049499;28;19924;-62
2021/01/08 00:26:54;;;;;;;;;;;20.90;67.20;;;;;;5053010;28;20266;-62
2021/01/08 00:29:23;;;;;;;;;;;21.00;67.20;;;;;;5051340;28;19928;-64
2021/01/08 00:31:54;;;;;;;;;;;21.00;67.10;;;;;;5054606;28;19931;-62
2021/01/08 00:34:27;;;;;;;;;;;21.10;67.10;;;;;;5053177;28;20496;-62
2021/01/08 00:36:58;;;;;;;;;;;21.10;67.00;;;;;;5055188;28;19933;-63
2021/01/08 00:39:33;;;;;;;;;;;21.10;66.70;;;;;;5048833;28;20015;-63
2021/01/08 00:42:04;;;;;;;;;;;21.20;66.80;;;;;;5051688;28;20391;-62
2021/01/08 00:44:35;;;;;;;;;;;21.20;66.80;;;;;;5067472;28;19958;-66
2021/01/08 00:47:09;;;;;;;;;;;21.30;66.90;;;;;;5054058;28;20423;-63
2021/01/08 00:49:42;;;;;;;;;;;21.30;66.80;;;;;;5053103;28;19928;-62
2021/01/08 00:52:15;;;;;;;;;;;21.30;66.60;;;;;;5056225;28;19925;-62
2021/01/08 00:54:48;;;;;;;;;;;21.40;66.90;;;;;;5054707;28;19934;-61
2021/01/08 00:57:32;;;;;;;;;;;21.40;66.90;;;;;;5050148;28;19924;-62
2021/01/08 01:00:01;;;;;;;;;;;21.50;67.00;;;;;;5050974;28;19925;-63
2021/01/08 01:02:35;;;;;;;;;;;21.60;67.00;;;;;;5056757;28;19935;-62
2021/01/08 01:05:06;;;;;;;;;;;21.60;66.90;;;;;;5053894;28;19925;-61
2021/01/08 01:07:38;;;;;;;;;;;21.60;66.80;;;;;;5056451;28;19990;-63
2021/01/08 01:10:08;;;;;;;;;;;21.70;66.80;;;;;;5053699;28;20238;-62
2021/01/08 01:12:43;;;;;;;;;;;21.80;66.80;;;;;;5050302;28;19936;-61
2021/01/08 01:15:21;;;;;;;;;;;21.80;66.90;;;;;;5050423;28;19931;-62
2021/01/08 01:17:51;;;;;;;;;;;21.80;66.70;;;;;;5055946;28;20029;-64
2021/01/08 01:20:23;;;;;;;;;;;21.90;67.40;;;;;;5055042;28;19935;-64
2021/01/08 01:23:07;;;;;;;;;;;22.00;66.90;;;;;;5055070;28;19952;-64
2021/01/08 01:25:37;;;;;;;;;;;22.10;67.00;;;;;;5054534;28;20291;-63
2021/01/08 01:28:07;;;;;;;;;;;22.10;67.00;;;;;;5053853;28;19928;-63
2021/01/08 01:30:38;;;;;;;;;;;22.10;67.00;;;;;;5050488;28;19982;-65
2021/01/08 01:33:11;;;;;;;;;;;22.20;67.10;;;;;;5051815;28;20007;-62
2021/01/08 01:35:43;;;;;;;;;;;22.30;67.20;;;;;;5056446;28;19931;-64
2021/01/08 01:38:14;;;;;;;;;;;22.30;67.80;;;;;;5058017;28;19924;-63
2021/01/08 01:40:44;;;;;;;;;;;22.40;67.20;;;;;;5059307;28;20015;-62
2021/01/08 01:43:15;;;;;;;;;;;22.40;67.20;;;;;;5056816;28;20077;-62
2021/01/08 01:45:45;;;;;;;;;;;22.40;67.20;;;;;;5057378;28;20372;-63
2021/01/08 01:48:15;;;;;;;;;;;22.50;67.10;;;;;;5050841;28;19925;-64
2021/01/08 01:50:46;;;;;;;;;;;22.60;67.30;;;;;;5057338;28;19935;-64
2021/01/08 01:53:17;;;;;;;;;;;22.60;67.50;;;;;;5057596;28;19931;-65
2021/01/08 01:55:49;;;;;;;;;;;22.70;67.40;;;;;;5058424;28;19928;-63
2021/01/08 01:58:18;;;;;;;;;;;22.70;67.40;;;;;;5055735;28;19924;-60
2021/01/08 02:00:47;;;;;;;;;;;22.80;67.50;;;;;;5058991;28;19924;-62
2021/01/08 02:03:30;;;;;;;;;;;22.80;67.40;;;;;;5052955;28;19929;-63
2021/01/08 02:06:03;;;;;;;;;;;22.90;67.50;;;;;;5055811;28;20035;-62
2021/01/08 02:08:32;;;;;;;;;;;23.00;67.50;;;;;;5055407;28;19925;-63
2021/01/08 02:11:06;;;;;;;;;;;23.00;67.70;;;;;;5059428;28;19932;-62
2021/01/08 02:13:47;;;;;;;;;;;23.10;67.60;;;;;;5055689;28;20015;-62
2021/01/08 02:16:18;;;;;;;;;;;23.20;67.60;;;;;;5059164;28;19925;-61
2021/01/08 02:18:53;;;;;;;;;;;23.20;67.60;;;;;;5054227;28;20048;-62
2021/01/08 02:21:26;;;;;;;;;;;23.30;67.60;;;;;;5053201;28;19935;-61
2021/01/08 02:24:03;;;;;;;;;;;23.30;67.60;;;;;;5055068;28;19931;-62
2021/01/08 02:26:33;;;;;;;;;;;23.30;67.60;;;;;;5058739;28;19935;-62
2021/01/08 02:29:02;;;;;;;;;;;23.40;67.60;;;;;;5053650;28;19928;-62
2021/01/08 02:31:35;;;;;;;;;;;23.50;67.70;;;;;;5058588;28;19935;-62
2021/01/08 02:34:07;;;;;;;;;;;23.50;67.70;;;;;;5056127;28;20391;-62
2021/01/08 02:36:38;;;;;;;;;;;23.60;67.70;;;;;;5056210;28;20011;-65
2021/01/08 02:39:11;;;;;;;;;;;23.60;67.60;;;;;;5050388;28;20287;-61
2021/01/08 02:41:49;;;;;;;;;;;23.60;67.40;;;;;;5053672;28;19932;-62
2021/01/08 02:44:18;;;;;;;;;;;23.60;67.30;;;;;;5046268;28;20428;-63
2021/01/08 02:46:49;;;;;;;;;;;23.60;67.10;;;;;;5059833;28;20240;-63
2021/01/08 02:49:22;;;;;;;;;;;23.60;67.30;;;;;;5044473;28;19924;-62
2021/01/08 02:51:56;;;;;;;;;;;23.50;67.30;;;;;;5070043;28;19924;-61
2021/01/08 02:54:32;;;;;;;;;;;23.50;67.40;;;;;;5044097;28;20397;-63
2021/01/08 02:57:05;;;;;;;;;;;23.60;67.40;;;;;;5052029;28;20446;-63
2021/01/08 02:59:39;;;;;;;;;;;23.60;67.40;;;;;;5052236;28;19963;-63
2021/01/08 03:02:08;;;;;;;;;;;23.50;67.40;;;;;;5051539;28;19920;-61
2021/01/08 03:04:38;;;;;;;;;;;23.60;67.40;;;;;;5043622;28;19930;-62
2021/01/08 03:07:07;;;;;;;;;;;23.60;67.60;;;;;;5075849;28;20538;-63
2021/01/08 03:09:36;;;;;;;;;;;23.60;67.40;;;;;;5043537;28;19978;-62
2021/01/08 03:12:06;;;;;;;;;;;23.60;67.50;;;;;;5042059;28;19925;-62
2021/01/08 03:14:35;;;;;;;;;;;23.60;67.50;;;;;;5055968;28;19920;-62
2021/01/08 03:17:04;;;;;;;;;;;23.60;67.50;;;;;;5050040;28;20208;-62
2021/01/08 03:19:35;;;;;;;;;;;23.60;67.50;;;;;;5048747;28;20376;-60
2021/01/08 03:22:04;;;;;;;;;;;23.70;67.70;;;;;;5045761;28;20391;-61
2021/01/08 03:24:34;;;;;;;;;;;23.70;67.50;;;;;;5046248;28;20022;-62
2021/01/08 03:27:05;;;;;;;;;;;23.70;67.30;;;;;;5049079;28;19924;-62
2021/01/08 03:29:36;;;;;;;;;;;23.70;67.30;;;;;;5053889;28;19929;-62
2021/01/08 03:32:06;;;;;;;;;;;23.80;67.40;;;;;;5045467;28;19924;-62
2021/01/08 03:34:38;;;;;;;;;;;23.80;67.40;;;;;;5047220;28;20452;-61
2021/01/08 03:37:10;;;;;;;;;;;23.80;67.30;;;;;;5047729;28;19956;-62
2021/01/08 03:39:42;;;;;;;;;;;23.90;67.40;;;;;;5055642;28;20079;-61
2021/01/08 03:42:13;;;;;;;;;;;23.90;67.20;;;;;;5055431;28;20227;-62
2021/01/08 03:44:43;;;;;;;;;;;23.90;67.20;;;;;;5043211;28;19956;-63
2021/01/08 03:47:13;;;;;;;;;;;23.90;67.10;;;;;;5043814;28;19967;-62
2021/01/08 03:49:43;;;;;;;;;;;24.00;67.10;;;;;;5058210;28;19924;-63
2021/01/08 03:52:14;;;;;;;;;;;24.00;66.90;;;;;;5047755;28;19924;-62
2021/01/08 03:54:45;;;;;;;;;;;24.00;66.90;;;;;;5047854;28;19924;-63
2021/01/08 03:57:15;;;;;;;;;;;24.00;66.70;;;;;;5050089;28;20325;-62
2021/01/08 03:59:45;;;;;;;;;;;24.10;66.70;;;;;;5059167;28;19931;-63
2021/01/08 04:02:17;;;;;;;;;;;24.00;66.70;;;;;;5053578;28;19970;-62
2021/01/08 04:04:47;;;;;;;;;;;24.10;66.60;;;;;;5044544;28;19924;-62
2021/01/08 04:07:17;;;;;;;;;;;24.10;66.40;;;;;;5051434;28;19924;-62
2021/01/08 04:09:47;;;;;;;;;;;24.10;66.40;;;;;;5058241;28;20043;-63
2021/01/08 04:12:20;;;;;;;;;;;24.20;66.40;;;;;;5047883;28;19964;-63
2021/01/08 04:14:50;;;;;;;;;;;24.20;66.30;;;;;;5070022;28;20196;-63
2021/01/08 04:17:21;;;;;;;;;;;24.20;66.30;;;;;;5044522;28;19928;-63
2021/01/08 04:19:52;;;;;;;;;;;24.30;66.30;;;;;;5029207;28;20036;-64
2021/01/08 04:22:25;;;;;;;;;;;24.30;66.30;;;;;;5053975;28;19925;-62
2021/01/08 04:24:55;;;;;;;;;;;24.40;66.40;;;;;;5052451;28;20663;-63
2021/01/08 04:27:27;;;;;;;;;;;24.40;66.40;;;;;;5055862;28;20350;-62
2021/01/08 04:29:56;;;;;;;;;;;24.40;66.40;;;;;;5050840;28;19924;-62
2021/01/08 04:32:25;;;;;;;;;;;24.50;66.50;;;;;;5053753;28;19924;-62
2021/01/08 04:34:57;;;;;;;;;;;24.50;66.50;;;;;;5047416;28;20132;-63
2021/01/08 04:37:27;;;;;;;;;;;24.60;67.20;;;;;;5069427;28;19931;-64
2021/01/08 04:40:00;;;;;;;;;;;24.60;66.30;;;;;;5052785;28;19946;-63
2021/01/08 04:42:32;;;;;;;;;;;24.60;65.90;;;;;;5056091;28;19936;-62
2021/01/08 04:45:10;;;;;;;;;;;24.60;65.70;;;;;;5054218;28;19932;-63
2021/01/08 04:47:42;;;;;;;;;;;24.60;65.70;;;;;;5056318;28;19947;-64
2021/01/08 04:50:13;;;;;;;;;;;24.60;65.30;;;;;;5051641;28;20363;-61
2021/01/08 04:52:46;;;;;;;;;;;24.60;64.90;;;;;;5051543;28;20369;-63
2021/01/08 04:55:22;;;;;;;;;;;24.60;64.70;;;;;;5055084;28;20255;-62
2021/01/08 04:57:52;;;;;;;;;;;24.50;64.40;;;;;;5056321;28;19930;-62
2021/01/08 05:00:22;;;;;;;;;;;24.50;64.20;;;;;;5053897;28;19929;-62
2021/01/08 05:02:51;;;;;;;;;;;24.50;63.90;;;;;;5055112;28;20334;-61
2021/01/08 05:05:39;;;;;;;;;;;24.50;63.60;;;;;;5052931;28;19931;-62
2021/01/08 05:08:14;;;;;;;;;;;24.50;63.40;;;;;;5051806;28;20014;-64
2021/01/08 05:10:45;;;;;;;;;;;24.50;63.30;;;;;;5051489;28;19928;-64
2021/01/08 05:13:14;;;;;;;;;;;24.50;62.80;;;;;;5058472;28;19951;-62
2021/01/08 05:15:51;;;;;;;;;;;24.50;62.40;;;;;;5056331;28;20024;-62
2021/01/08 05:21:18;;;;;;;;;;;24.50;62.10;;;;;;5058180;28;20191;-62
2021/01/08 05:23:51;;;;;;;;;;;24.50;61.50;;;;;;5055473;28;19964;-63
2021/01/08 05:26:21;;;;;;;;;;;24.40;61.10;;;;;;5055818;28;19973;-63
2021/01/08 05:28:55;;;;;;;;;;;24.40;60.80;;;;;;5057447;28;19936;-63
2021/01/08 05:31:25;;;;;;;;;;;24.40;60.70;;;;;;5057601;28;20501;-59
2021/01/08 05:33:57;;;;;;;;;;;24.40;60.30;;;;;;5060126;28;19928;-63
2021/01/08 05:36:27;;;;;;;;;;;24.40;60.00;;;;;;5057111;28;20252;-64
2021/01/08 05:39:00;;;;;;;;;;;24.40;60.00;;;;;;5058241;28;20047;-64
2021/01/08 05:41:32;;;;;;;;;;;24.40;59.60;;;;;;5053306;28;19951;-61
2021/01/08 05:44:02;;;;;;;;;;;24.40;59.60;;;;;;5058648;28;19924;-59
2021/01/08 05:46:34;;;;;;;;;;;24.40;59.20;;;;;;5030027;28;19936;-62
2021/01/08 05:49:07;;;;;;;;;;;24.40;58.90;;;;;;5018878;28;19951;-64
2021/01/08 05:51:39;;;;;;;;;;;24.40;59.10;;;;;;5017612;28;19955;-63
2021/01/08 05:54:12;;;;;;;;;;;24.40;58.80;;;;;;5019889;28;19928;-63
2021/01/08 05:56:42;;;;;;;;;;;24.40;58.50;;;;;;5029642;28;19929;-63
2021/01/08 05:59:12;;;;;;;;;;;24.40;58.20;;;;;;5014632;28;19928;-62
2021/01/08 06:01:41;;;;;;;;;;;24.40;57.90;;;;;;5010553;28;20021;-64
2021/01/08 06:04:10;;;;;;;;;;;24.40;57.80;;;;;;5019665;28;20027;-62
2021/01/08 06:06:41;;;;;;;;;;;24.40;57.70;;;;;;5020295;28;20474;-63
2021/01/08 06:09:17;;;;;;;;;;;24.40;57.60;;;;;;5019273;28;19968;-62
2021/01/08 06:11:47;;;;;;;;;;;24.40;57.30;;;;;;5017742;28;19963;-61
2021/01/08 06:14:17;;;;;;;;;;;24.40;56.70;;;;;;5011305;28;20401;-63
2021/01/08 06:16:49;;;;;;;;;;;24.40;56.60;;;;;;5010856;28;19929;-62
2021/01/08 06:19:22;;;;;;;;;;;24.40;56.70;;;;;;5007686;28;20137;-64
2021/01/08 06:22:00;;;;;;;;;;;24.50;57.10;;;;;;5018000;28;19925;-63
2021/01/08 06:24:30;;;;;;;;;;;24.60;57.20;;;;;;5014794;28;19979;-63
2021/01/08 06:27:02;;;;;;;;;;;24.60;57.20;;;;;;5018578;28;19925;-61
2021/01/08 06:29:34;;;;;;;;;;;24.70;57.30;;;;;;5014706;28;20027;-62
2021/01/08 06:32:16;;;;;;;;;;;24.80;57.40;;;;;;5009865;28;19929;-62
2021/01/08 06:34:46;;;;;;;;;;;24.80;57.40;;;;;;5015897;28;20575;-62
2021/01/08 06:37:21;;;;;;;;;;;24.90;57.30;;;;;;5018169;28;19926;-63
2021/01/08 06:39:58;;;;;;;;;;;24.90;57.30;;;;;;5015082;28;20067;-62
2021/01/08 06:42:30;;;;;;;;;;;25.00;57.30;;;;;;5019205;28;19940;-62
2021/01/08 06:45:02;;;;;;;;;;;25.00;57.20;;;;;;5015426;28;19925;-62
2021/01/08 06:47:35;;;;;;;;;;;25.00;57.30;;;;;;5016526;28;19954;-62
2021/01/08 06:50:08;;;;;;;;;;;25.10;57.30;;;;;;5013434;28;20015;-63
2021/01/08 06:52:42;;;;;;;;;;;25.10;57.40;;;;;;5018464;28;20283;-62
2021/01/08 06:55:16;;;;;;;;;;;25.10;57.00;;;;;;5014047;28;19925;-62
2021/01/08 06:57:54;;;;;;;;;;;25.10;56.20;;;;;;5018879;28;20416;-64
2021/01/08 07:00:28;;;;;;;;;;;25.00;55.90;;;;;;5012214;28;19936;-63
2021/01/08 07:02:59;;;;;;;;;;;24.90;55.80;;;;;;5015752;28;19929;-63
2021/01/08 07:05:31;;;;;;;;;;;24.90;55.40;;;;;;5008976;28;19925;-65
2021/01/08 07:08:03;;;;;;;;;;;24.80;55.20;;;;;;5018299;28;20052;-64
2021/01/08 07:10:34;;;;;;;;;;;24.80;55.00;;;;;;5015708;28;19935;-64
2021/01/08 07:13:04;;;;;;;;;;;24.80;54.60;;;;;;5018204;28;19929;-64
2021/01/08 07:15:39;;;;;;;;;;;24.70;54.40;;;;;;5014234;28;20043;-64
2021/01/08 07:18:14;;;;;;;;;;;24.60;54.10;;;;;;5017450;28;19925;-64
2021/01/08 07:20:58;;;;;;;;;;;24.60;54.10;;;;;;5010044;28;20026;-64
2021/01/08 07:23:45;;;;;;;;;;;24.60;53.90;;;;;;5015223;28;19925;-63
2021/01/08 07:26:17;;;;;;;;;;;24.60;53.70;;;;;;5014866;28;19925;-65
2021/01/08 07:28:48;;;;;;;;;;;24.50;53.70;;;;;;5017816;28;20403;-64
2021/01/08 07:31:28;;;;;;;;;;;24.50;53.50;;;;;;5014990;28;19925;-63
2021/01/08 07:33:59;;;;;;;;;;;24.50;53.50;;;;;;5017359;28;20008;-64
2021/01/08 07:36:29;;;;;;;;;;;24.50;53.30;;;;;;5012509;28;19925;-63
2021/01/08 07:39:00;;;;;;;;;;;24.40;53.20;;;;;;5010953;28;19948;-63
2021/01/08 07:41:36;;;;;;;;;;;24.40;53.10;;;;;;5014089;28;19933;-63
2021/01/08 07:44:26;;;;;;;;;;;24.40;53.00;;;;;;5018072;28;19955;-64
2021/01/08 07:46:57;;;;;;;;;;;24.40;52.90;;;;;;5013013;28;19925;-63
2021/01/08 07:49:29;;;;;;;;;;;24.40;52.70;;;;;;5016901;28;19929;-63
2021/01/08 07:52:00;;;;;;;;;;;24.30;52.70;;;;;;5013179;28;19925;-62
2021/01/08 07:54:52;;;;;;;;;;;24.30;52.60;;;;;;5013187;28;20361;-64
2021/01/08 07:57:23;;;;;;;;;;;24.30;52.50;;;;;;5012468;28;19936;-63
2021/01/08 07:59:52;;;;;;;;;;;24.30;52.40;;;;;;5017428;28;19929;-63
2021/01/08 08:02:21;;;;;;;;;;;24.30;52.40;;;;;;5013759;28;20033;-62
2021/01/08 08:04:51;;;;;;;;;;;24.20;52.30;;;;;;5017206;28;19968;-64
2021/01/08 08:07:21;;;;;;;;;;;24.20;52.20;;;;;;5014838;28;19928;-63
2021/01/08 08:09:55;;;;;;;;;;;24.20;52.00;;;;;;5015122;28;19931;-63
2021/01/08 08:12:25;;;;;;;;;;;24.20;52.00;;;;;;5024198;28;19931;-64
2021/01/08 08:15:00;;;;;;;;;;;24.20;52.00;;;;;;5015916;28;20292;-63
2021/01/08 08:17:30;;;;;;;;;;;24.20;51.80;;;;;;5013985;28;19936;-63
2021/01/08 08:20:19;;;;;;;;;;;24.20;51.70;;;;;;5017078;28;19932;-63
2021/01/08 08:22:50;;;;;;;;;;;24.20;51.60;;;;;;5014430;28;19928;-63
2021/01/08 08:25:30;;;;;;;;;;;24.10;51.50;;;;;;5016422;28;19930;-63
2021/01/08 08:28:00;;;;;;;;;;;24.10;51.30;;;;;;5008620;28;19928;-63
2021/01/08 08:30:31;;;;;;;;;;;24.10;51.30;;;;;;5013922;28;19933;-62
2021/01/08 08:33:04;;;;;;;;;;;24.10;51.30;;;;;;5013926;28;19935;-63
2021/01/08 08:35:34;;;;;;;;;;;24.10;51.00;;;;;;5016426;28;19925;-63
2021/01/08 08:38:04;;;;;;;;;;;24.00;50.70;;;;;;5013906;28;20035;-62
2021/01/08 08:40:35;;;;;;;;;;;24.00;50.50;;;;;;5017612;28;20388;-63
2021/01/08 08:43:05;;;;;;;;;;;23.90;50.40;;;;;;5012823;28;20385;-63
2021/01/08 08:45:36;;;;;;;;;;;23.90;50.30;;;;;;5013079;28;19929;-63
2021/01/08 08:48:07;;;;;;;;;;;23.90;50.30;;;;;;5018045;28;19968;-63
2021/01/08 08:50:46;;;;;;;;;;;23.90;50.10;;;;;;5035348;28;20054;-63
2021/01/08 08:53:17;;;;;;;;;;;23.90;50.30;;;;;;5018257;28;19925;-63
2021/01/08 08:55:49;;;;;;;;;;;23.90;50.20;;;;;;5019189;28;19932;-65
2021/01/08 08:58:18;;;;;;;;;;;23.90;50.30;;;;;;5020654;28;20024;-63
2021/01/08 09:00:47;;;;;;;;;;;23.90;50.20;;;;;;5012438;28;19925;-62
2021/01/08 09:03:17;;;;;;;;;;;23.90;50.20;;;;;;5016727;28;19967;-63
2021/01/08 09:05:48;;;;;;;;;;;24.00;50.20;;;;;;5017453;28;19947;-62
2021/01/08 09:08:20;;;;;;;;;;;24.00;50.30;;;;;;5020915;28;19968;-63
2021/01/08 09:10:49;;;;;;;;;;;24.00;50.40;;;;;;5014976;28;19931;-62
2021/01/08 09:13:21;;;;;;;;;;;24.00;50.70;;;;;;5023427;28;19940;-63
2021/01/08 09:15:55;;;;;;;;;;;24.00;50.90;;;;;;5020074;28;19971;-63
2021/01/08 09:18:45;;;;;;;;;;;24.00;51.30;;;;;;5018882;28;19929;-62
2021/01/08 09:21:23;;;;;;;;;;;24.00;51.50;;;;;;5017260;28;19972;-63
2021/01/08 09:24:00;;;;;;;;;;;24.00;51.90;;;;;;5020949;28;19925;-62
2021/01/08 09:26:30;;;;;;;;;;;24.00;52.30;;;;;;5015191;28;20471;-62
2021/01/08 09:29:01;;;;;;;;;;;24.00;52.40;;;;;;5021805;28;19924;-62
2021/01/08 09:31:40;;;;;;;;;;;24.00;52.60;;;;;;5022355;28;19956;-64
2021/01/08 09:34:18;;;;;;;;;;;24.00;53.00;;;;;;5034421;28;19936;-64
2021/01/08 09:36:48;;;;;;;;;;;23.90;53.20;;;;;;5016974;28;20464;-64
2021/01/08 09:39:22;;;;;;;;;;;23.80;53.30;;;;;;5020816;28;19925;-63
2021/01/08 09:42:00;;;;;;;;;;;23.70;53.60;;;;;;5020279;28;20024;-63
2021/01/08 09:44:30;;;;;;;;;;;23.70;53.80;;;;;;5023307;28;19954;-64
2021/01/08 09:47:04;;;;;;;;;;;23.50;54.20;;;;;;5033696;28;20281;-63
2021/01/08 09:49:53;;;;;;;;;;;23.50;55.00;;;;;;5023762;28;20381;-64
2021/01/08 09:52:28;;;;;;;;;;;23.30;55.10;;;;;;5031371;28;19920;-64
2021/01/08 09:55:09;;;;;;;;;;;23.30;56.10;;;;;;5021553;28;19967;-64
2021/01/08 09:57:43;;;;;;;;;;;23.20;56.20;;;;;;5023037;28;19940;-63
2021/01/08 10:00:15;;;;;;;;;;;23.00;57.20;;;;;;5024218;28;19929;-64
2021/01/08 10:03:05;;;;;;;;;;;23.10;57.60;;;;;;5018925;28;20152;-64
2021/01/08 10:05:35;;;;;;;;;;;23.20;57.40;;;;;;5022853;28;20032;-63
2021/01/08 10:08:04;;;;;;;;;;;23.10;57.80;;;;;;5034684;28;19929;-64
2021/01/08 10:10:34;;;;;;;;;;;23.10;57.60;;;;;;5017516;28;20189;-63
2021/01/08 10:13:05;;;;;;;;;;;23.00;58.00;;;;;;5011481;28;19929;-63
2021/01/08 10:15:38;;;;;;;;;;;22.90;58.50;;;;;;5009805;28;20421;-62
2021/01/08 10:18:13;;;;;;;;;;;22.80;58.60;;;;;;5006814;28;20299;-62
2021/01/08 10:20:46;;;;;;;;;;;22.90;58.80;;;;;;5012042;28;19925;-62
2021/01/08 10:23:19;;;;;;;;;;;22.90;59.10;;;;;;5009093;28;19936;-63
2021/01/08 10:25:52;;;;;;;;;;;22.90;59.40;;;;;;5011168;28;19955;-62
2021/01/08 10:28:23;;;;;;;;;;;22.60;60.10;;;;;;5014495;28;19940;-62
2021/01/08 10:30:58;;;;;;;;;;;22.50;59.70;;;;;;5012489;28;19937;-62
2021/01/08 10:33:28;;;;;;;;;;;22.30;60.30;;;;;;5014922;28;19924;-62
2021/01/08 10:35:58;;;;;;;;;;;22.20;60.80;;;;;;5020927;28;20615;-62
2021/01/08 10:38:28;;;;;;;;;;;22.20;61.30;;;;;;5016405;28;20047;-62
2021/01/08 10:41:00;;;;;;;;;;;22.10;61.70;;;;;;5018020;28;20444;-62
2021/01/08 10:43:32;;;;;;;;;;;21.90;61.90;;;;;;5006251;28;19925;-62
2021/01/08 10:46:03;;;;;;;;;;;21.80;62.40;;;;;;5005936;28;19929;-62
2021/01/08 10:48:34;;;;;;;;;;;21.90;62.90;;;;;;5004377;28;19929;-62
2021/01/08 10:51:05;;;;;;;;;;;21.80;62.90;;;;;;5005851;28;19929;-61
2021/01/08 10:53:38;;;;;;;;;;;21.80;63.20;;;;;;5005399;28;19929;-61
2021/01/08 10:56:09;;;;;;;;;;;21.90;63.10;;;;;;5005163;28;19925;-63
2021/01/08 10:58:41;;;;;;;;;;;22.00;63.40;;;;;;5002176;28;19932;-62
2021/01/08 11:01:12;;;;;;;;;;;22.10;63.40;;;;;;5003966;28;19956;-61
2021/01/08 11:03:43;;;;;;;;;;;22.10;63.30;;;;;;5004552;28;19964;-62
2021/01/08 11:06:19;;;;;;;;;;;22.10;63.20;;;;;;5003800;28;19929;-62
2021/01/08 11:08:50;;;;;;;;;;;22.00;63.10;;;;;;5001427;28;20369;-62
2021/01/08 11:11:24;;;;;;;;;;;21.80;63.50;;;;;;5002213;28;19951;-62
2021/01/08 11:13:53;;;;;;;;;;;21.60;64.40;;;;;;5006788;28;19968;-61
2021/01/08 11:16:27;;;;;;;;;;;21.50;63.80;;;;;;5009941;28;20452;-62
2021/01/08 11:18:58;;;;;;;;;;;21.60;64.90;;;;;;5006405;28;20461;-62
2021/01/08 11:21:27;;;;;;;;;;;21.50;65.10;;;;;;5008860;28;19925;-62
2021/01/08 11:23:58;;;;;;;;;;;21.60;65.90;;;;;;5011039;28;20052;-62
2021/01/08 11:26:30;;;;;;;;;;;21.70;65.30;;;;;;5004929;28;19925;-62
2021/01/08 11:29:00;;;;;;;;;;;21.70;64.80;;;;;;5015566;28;19925;-62
2021/01/08 11:31:32;;;;;;;;;;;21.50;65.40;;;;;;5011543;28;19929;-62
2021/01/08 11:34:07;;;;;;;;;;;21.40;65.50;;;;;;5016675;28;19935;-62
2021/01/08 11:36:38;;;;;;;;;;;21.40;65.90;;;;;;5014155;28;19925;-62
2021/01/08 11:39:08;;;;;;;;;;;21.40;66.10;;;;;;5017899;28;19964;-62
2021/01/08 11:41:39;;;;;;;;;;;21.40;66.10;;;;;;5012054;28;20361;-62
2021/01/08 11:44:10;;;;;;;;;;;21.30;65.60;;;;;;5014263;28;19925;-62
2021/01/08 11:46:40;;;;;;;;;;;21.20;66.30;;;;;;5007678;28;20454;-62
2021/01/08 11:49:11;;;;;;;;;;;21.10;66.30;;;;;;5005973;28;20076;-62
2021/01/08 11:51:41;;;;;;;;;;;21.10;66.70;;;;;;5003432;28;20409;-62
2021/01/08 11:54:13;;;;;;;;;;;21.10;66.60;;;;;;5007666;28;21968;-62
2021/01/08 11:56:44;;;;;;;;;;;21.00;66.40;;;;;;5007263;28;19924;-62
2021/01/08 11:59:15;;;;;;;;;;;20.90;66.20;;;;;;5012224;28;19925;-61
2021/01/08 12:01:46;;;;;;;;;;;20.80;67.40;;;;;;5014474;28;19932;-62
2021/01/08 12:04:18;;;;;;;;;;;20.90;67.60;;;;;;5014332;28;19925;-61
2021/01/08 12:06:47;;;;;;;;;;;20.70;67.70;;;;;;5007631;28;20451;-62
2021/01/08 12:09:16;;;;;;;;;;;20.60;68.20;;;;;;5020827;28;20075;-63
2021/01/08 12:11:45;;;;;;;;;;;20.30;68.70;;;;;;5007653;28;20389;-62
2021/01/08 12:14:14;;;;;;;;;;;20.10;68.80;;;;;;5009140;28;20027;-63
2021/01/08 12:16:44;;;;;;;;;;;20.10;69.20;;;;;;5015148;28;19957;-61
2021/01/08 12:19:17;;;;;;;;;;;20.30;69.70;;;;;;5011895;28;20023;-60
2021/01/08 12:21:50;;;;;;;;;;;20.50;69.60;;;;;;5007989;28;19925;-60
2021/01/08 12:24:21;;;;;;;;;;;20.80;69.50;;;;;;5009328;28;19959;-58
2021/01/08 12:26:54;;;;;;;;;;;20.80;69.20;;;;;;5005894;28;19939;-60
2021/01/08 12:29:23;;;;;;;;;;;20.90;69.00;;;;;;5014564;28;20032;-62
2021/01/08 12:31:53;;;;;;;;;;;20.90;68.80;;;;;;5000153;28;19925;-60
2021/01/08 12:34:25;;;;;;;;;;;20.80;68.50;;;;;;5010020;28;19952;-62
2021/01/08 12:36:55;;;;;;;;;;;20.70;68.10;;;;;;5005621;28;19925;-62
2021/01/08 12:39:28;;;;;;;;;;;20.60;68.30;;;;;;5008641;28;19924;-62
2021/01/08 12:42:00;;;;;;;;;;;20.50;68.30;;;;;;5014358;28;20023;-62
2021/01/08 12:44:30;;;;;;;;;;;20.60;68.60;;;;;;5015861;28;19924;-63
2021/01/08 12:47:04;;;;;;;;;;;20.70;68.60;;;;;;5014298;28;20409;-63
2021/01/08 12:49:35;;;;;;;;;;;20.80;68.50;;;;;;5017822;28;19925;-65
2021/01/08 12:52:06;;;;;;;;;;;20.80;68.30;;;;;;5005329;28;19925;-62
2021/01/08 12:54:37;;;;;;;;;;;20.70;68.20;;;;;;5002350;28;19925;-64
2021/01/08 12:57:07;;;;;;;;;;;19.80;67.10;;;;;;5011141;28;20416;-61
2021/01/08 12:59:39;;;;;;;;;;;19.10;69.80;;;;;;5018690;28;19932;-61
2021/01/08 13:02:09;;;;;;;;;;;18.60;71.00;;;;;;5006138;28;19925;-64
2021/01/08 13:04:42;;;;;;;;;;;18.60;72.50;;;;;;5003315;28;20268;-62
2021/01/08 13:07:13;;;;;;;;;;;18.90;72.90;;;;;;5013579;28;19947;-65
2021/01/08 13:09:43;;;;;;;;;;;19.20;72.90;;;;;;5007098;28;19925;-62
2021/01/08 13:12:13;;;;;;;;;;;19.50;72.70;;;;;;5002251;28;19932;-63
2021/01/08 13:14:43;;;;;;;;;;;19.80;72.40;;;;;;5002478;28;19930;-60
2021/01/08 13:17:13;;;;;;;;;;;20.00;72.00;;;;;;5024530;28;20019;-64
2021/01/08 13:19:43;;;;;;;;;;;20.10;71.60;;;;;;5005109;28;19929;-63
2021/01/08 13:22:18;;;;;;;;;;;19.20;70.00;;;;;;5007374;28;19926;-61
2021/01/08 13:24:48;;;;;;;;;;;18.90;72.20;;;;;;5004897;28;19925;-64
2021/01/08 13:27:17;;;;;;;;;;;19.30;73.00;;;;;;5003303;28;20016;-61
2021/01/08 13:29:46;;;;;;;;;;;19.60;72.80;;;;;;5018351;28;19929;-61
2021/01/08 13:32:17;;;;;;;;;;;19.80;72.40;;;;;;5012867;28;19968;-61
2021/01/08 13:34:49;;;;;;;;;;;20.00;72.10;;;;;;4992817;28;19929;-68
2021/01/08 13:37:21;;;;;;;;;;;20.10;71.70;;;;;;5021481;28;19931;-61
2021/01/08 13:39:52;;;;;;;;;;;20.20;71.20;;;;;;5019634;28;19925;-60
2021/01/08 13:42:23;;;;;;;;;;;19.80;69.80;;;;;;5021667;28;19932;-65
2021/01/08 13:44:53;;;;;;;;;;;19.40;70.30;;;;;;5019906;28;19929;-65
2021/01/08 13:47:28;;;;;;;;;;;19.60;71.70;;;;;;5023034;28;20046;-62
2021/01/08 13:50:03;;;;;;;;;;;19.80;71.80;;;;;;5023699;28;20258;-64
2021/01/08 13:52:37;;;;;;;;;;;20.10;71.70;;;;;;5023984;28;20452;-62
2021/01/08 13:55:08;;;;;;;;;;;20.20;71.30;;;;;;5024141;28;20121;-67
2021/01/08 13:57:38;;;;;;;;;;;20.30;71.20;;;;;;5020246;28;19925;-62
2021/01/08 14:00:08;;;;;;;;;;;20.30;70.30;;;;;;5024153;28;19921;-64
2021/01/08 14:02:37;;;;;;;;;;;20.40;70.70;;;;;;5020373;28;20020;-61
2021/01/08 14:05:06;;;;;;;;;;;20.50;70.40;;;;;;5021661;28;20320;-63
2021/01/08 14:07:37;;;;;;;;;;;20.60;70.30;;;;;;5023377;28;20323;-62
2021/01/08 14:10:07;;;;;;;;;;;20.70;69.70;;;;;;5027147;28;19925;-62
2021/01/08 14:12:38;;;;;;;;;;;20.70;69.70;;;;;;5024519;28;19929;-61
2021/01/08 14:15:08;;;;;;;;;;;20.80;69.80;;;;;;5024323;28;20052;-62
2021/01/08 14:17:39;;;;;;;;;;;20.90;69.50;;;;;;5020081;28;20435;-63
2021/01/08 14:20:16;;;;;;;;;;;20.90;69.10;;;;;;5021075;28;19929;-61
2021/01/08 14:22:47;;;;;;;;;;;20.90;68.10;;;;;;5018763;28;20317;-62
2021/01/08 14:25:18;;;;;;;;;;;20.70;68.00;;;;;;5022127;28;19959;-63
2021/01/08 14:27:47;;;;;;;;;;;20.70;68.20;;;;;;5022435;28;19931;-65
2021/01/08 14:30:18;;;;;;;;;;;20.80;68.40;;;;;;5026713;28;19925;-62
2021/01/08 14:32:49;;;;;;;;;;;20.90;68.40;;;;;;5021756;28;19925;-62
2021/01/08 14:35:20;;;;;;;;;;;21.00;68.10;;;;;;5017978;28;20232;-60
2021/01/08 14:37:51;;;;;;;;;;;21.10;67.90;;;;;;5019440;28;20365;-64
2021/01/08 14:40:21;;;;;;;;;;;21.10;67.20;;;;;;5022587;28;19925;-62
2021/01/08 14:42:53;;;;;;;;;;;21.10;67.00;;;;;;5022935;28;20020;-62
2021/01/08 14:45:41;;;;;;;;;;;21.10;67.10;;;;;;5023316;28;19996;-64
2021/01/08 14:48:14;;;;;;;;;;;21.10;67.00;;;;;;5024883;28;19968;-65